Time;durP1;ratioP1;P1;durP2;ratioP2;P2;SDS_P1;SDS_P2;PMS_P1;PMS_P2;Temp;Humidity;BMP_temperature;BMP_pressure;BME280_temperature;BME280_humidity;BME280_pressure;Samples;Min_cycle;Max_cycle;Signal;HPM_P1;HPM_P2
2022/09/06 00:00:54;;;;;;;12.05;3.60;;;21.00;73.70;;;;;;4991701;28;20053;-63
2022/09/06 00:03:20;;;;;;;5.35;3.60;;;20.90;73.80;;;;;;4989111;28;20408;-63
2022/09/06 00:05:46;;;;;;;6.65;3.47;;;20.90;74.00;;;;;;4968570;28;20060;-65
2022/09/06 00:08:13;;;;;;;9.43;3.70;;;20.90;74.10;;;;;;4989681;28;20038;-62
2022/09/06 00:10:41;;;;;;;6.63;3.53;;;20.80;74.00;;;;;;4972256;28;20164;-63
2022/09/06 00:13:08;;;;;;;5.85;3.63;;;20.80;74.10;;;;;;4946243;28;20042;-62
2022/09/06 00:15:35;;;;;;;7.32;3.80;;;20.80;74.20;;;;;;4972252;28;20050;-63
2022/09/06 00:18:04;;;;;;;9.13;3.70;;;20.70;74.30;;;;;;4982720;28;20077;-62
2022/09/06 00:20:31;;;;;;;7.70;3.72;;;20.70;74.40;;;;;;4984020;28;20135;-63
2022/09/06 00:23:02;;;;;;;8.65;3.40;;;20.70;74.50;;;;;;4970694;28;20389;-63
2022/09/06 00:25:29;;;;;;;14.15;3.58;;;20.60;74.50;;;;;;4991945;28;20046;-63
2022/09/06 00:28:00;;;;;;;6.03;3.63;;;20.60;74.50;;;;;;4954879;28;20191;-62
2022/09/06 00:30:27;;;;;;;7.20;3.40;;;20.60;74.60;;;;;;4971826;28;20050;-63
2022/09/06 00:32:54;;;;;;;4.47;3.80;;;20.60;74.80;;;;;;4956425;28;20054;-63
2022/09/06 00:35:21;;;;;;;7.10;3.80;;;20.50;74.90;;;;;;4991816;28;20473;-63
2022/09/06 00:37:47;;;;;;;6.53;3.50;;;20.50;74.90;;;;;;4959267;28;20398;-63
2022/09/06 00:40:14;;;;;;;7.63;3.60;;;20.50;75.00;;;;;;4965667;28;20042;-63
2022/09/06 00:42:39;;;;;;;6.60;3.40;;;20.50;75.10;;;;;;4964892;28;20042;-63
2022/09/06 00:45:07;;;;;;;6.97;3.83;;;20.40;75.20;;;;;;4954973;28;20529;-63
2022/09/06 00:47:35;;;;;;;8.27;4.00;;;20.30;75.30;;;;;;4972042;28;20076;-63
2022/09/06 00:50:02;;;;;;;8.88;3.95;;;20.30;75.30;;;;;;4951482;28;20444;-63
2022/09/06 00:52:29;;;;;;;7.68;3.85;;;20.30;75.40;;;;;;4949128;28;20360;-63
2022/09/06 00:54:55;;;;;;;7.03;3.80;;;20.30;75.60;;;;;;4988213;28;20049;-63
2022/09/06 00:57:25;;;;;;;4.47;3.83;;;20.30;75.60;;;;;;4973732;28;21655;-63
2022/09/06 00:59:53;;;;;;;4.63;3.55;;;20.20;75.40;;;;;;4961776;28;20136;-63
2022/09/06 01:02:19;;;;;;;4.30;3.53;;;20.20;75.50;;;;;;4955878;28;20096;-63
2022/09/06 01:04:47;;;;;;;9.25;3.58;;;20.20;75.40;;;;;;4970321;28;20058;-63
2022/09/06 01:07:15;;;;;;;5.07;3.85;;;20.30;75.50;;;;;;4955511;28;20123;-63
2022/09/06 01:10:18;;;;;;;9.02;3.80;;;20.20;75.40;;;;;;4985260;28;20587;-63
2022/09/06 01:12:57;;;;;;;5.30;3.70;;;20.20;75.10;;;;;;4972562;28;20087;-63
2022/09/06 01:15:54;;;;;;;5.05;3.90;;;20.20;75.30;;;;;;4984744;28;20761;-63
2022/09/06 01:18:31;;;;;;;7.80;4.03;;;20.20;75.40;;;;;;4973516;28;20166;-63
2022/09/06 01:21:21;;;;;;;6.55;3.70;;;20.20;75.30;;;;;;4970534;28;20081;-63
2022/09/06 01:24:08;;;;;;;7.18;3.67;;;20.10;75.60;;;;;;4988218;28;21076;-63
2022/09/06 01:26:40;;;;;;;6.03;3.75;;;20.10;75.80;;;;;;4970778;28;20085;-63
2022/09/06 01:29:22;;;;;;;4.82;3.85;;;20.00;75.90;;;;;;4971856;28;21948;-63
2022/09/06 01:31:54;;;;;;;7.88;4.05;;;20.00;76.00;;;;;;4985714;28;20395;-63
2022/09/06 01:34:35;;;;;;;4.45;3.50;;;20.00;76.10;;;;;;4955644;28;21779;-63
2022/09/06 01:37:07;;;;;;;7.13;3.70;;;20.00;76.10;;;;;;4965663;28;20052;-62
2022/09/06 01:39:34;;;;;;;9.00;4.10;;;19.90;76.30;;;;;;4958593;28;20661;-62
2022/09/06 01:42:23;;;;;;;8.65;3.90;;;19.90;76.40;;;;;;4967187;28;20042;-62
2022/09/06 01:45:06;;;;;;;9.48;4.10;;;19.90;76.40;;;;;;4987368;28;20054;-63
2022/09/06 01:48:00;;;;;;;8.10;4.00;;;19.80;76.50;;;;;;4972339;28;20050;-63
2022/09/06 01:50:47;;;;;;;4.95;3.72;;;19.80;76.60;;;;;;4949266;28;20046;-63
2022/09/06 01:53:43;;;;;;;6.15;3.75;;;19.80;76.70;;;;;;4974210;28;20180;-63
2022/09/06 01:56:15;;;;;;;7.82;4.60;;;19.80;76.70;;;;;;4952041;28;20591;-63
2022/09/06 01:58:51;;;;;;;4.32;3.92;;;19.80;77.00;;;;;;4970659;28;20137;-63
2022/09/06 02:01:20;;;;;;;6.15;3.83;;;19.70;77.00;;;;;;4974207;28;20408;-62
2022/09/06 02:04:12;;;;;;;4.75;3.75;;;19.70;77.10;;;;;;4989081;28;20049;-63
2022/09/06 02:06:48;;;;;;;7.00;3.78;;;19.70;77.10;;;;;;4966534;28;20436;-63
2022/09/06 02:09:20;;;;;;;6.95;3.83;;;19.70;77.20;;;;;;4968810;28;20050;-63
2022/09/06 02:11:58;;;;;;;8.02;4.25;;;19.70;77.30;;;;;;4968257;28;20476;-63
2022/09/06 02:14:34;;;;;;;7.53;4.15;;;19.70;77.30;;;;;;4988582;28;20085;-63
2022/09/06 02:17:02;;;;;;;7.88;4.00;;;19.60;77.40;;;;;;4967631;28;20066;-63
2022/09/06 02:19:55;;;;;;;4.13;3.63;;;19.60;77.40;;;;;;4936165;28;20084;-63
2022/09/06 02:22:24;;;;;;;7.82;4.07;;;19.60;77.40;;;;;;4986501;28;20135;-63
2022/09/06 02:24:52;;;;;;;5.45;4.10;;;19.60;77.60;;;;;;4975827;28;20135;-63
2022/09/06 02:27:18;;;;;;;7.15;4.22;;;19.60;77.60;;;;;;4971332;28;20103;-63
2022/09/06 02:29:44;;;;;;;6.00;3.80;;;19.60;77.60;;;;;;4991065;28;20933;-63
2022/09/06 02:32:17;;;;;;;7.30;4.10;;;19.60;77.60;;;;;;4972937;28;20053;-62
2022/09/06 02:34:45;;;;;;;5.13;4.10;;;19.60;77.60;;;;;;4982747;28;20432;-63
2022/09/06 02:37:12;;;;;;;7.97;4.40;;;19.60;77.60;;;;;;4987176;28;20057;-63
2022/09/06 02:39:38;;;;;;;5.10;4.13;;;19.60;77.50;;;;;;4951563;28;20108;-63
2022/09/06 02:42:07;;;;;;;10.55;4.50;;;19.60;77.60;;;;;;4972092;28;20046;-62
2022/09/06 02:44:33;;;;;;;10.85;4.35;;;19.60;77.60;;;;;;4991474;28;20054;-63
2022/09/06 02:47:00;;;;;;;7.30;4.32;;;19.60;77.60;;;;;;4987697;28;20053;-63
2022/09/06 02:49:26;;;;;;;7.22;4.03;;;19.60;77.80;;;;;;4957567;28;20130;-63
2022/09/06 02:51:51;;;;;;;7.78;4.68;;;19.60;77.80;;;;;;4969097;28;20511;-62
2022/09/06 02:54:17;;;;;;;7.45;4.28;;;19.60;77.80;;;;;;4960103;28;20426;-63
2022/09/06 02:56:43;;;;;;;6.20;4.05;;;19.50;77.80;;;;;;4974545;28;20045;-62
2022/09/06 02:59:09;;;;;;;10.52;4.20;;;19.50;77.90;;;;;;4949805;28;20158;-62
2022/09/06 03:01:34;;;;;;;5.85;4.45;;;19.50;78.00;;;;;;4949233;28;20060;-63
2022/09/06 03:04:01;;;;;;;5.25;4.13;;;19.50;78.10;;;;;;4949334;28;20049;-63
2022/09/06 03:06:27;;;;;;;7.15;4.13;;;19.50;78.30;;;;;;4973938;28;20083;-63
2022/09/06 03:08:52;;;;;;;5.22;4.10;;;19.40;78.30;;;;;;4953374;28;20109;-62
2022/09/06 03:11:18;;;;;;;4.32;3.92;;;19.40;78.30;;;;;;4974506;28;20052;-63
2022/09/06 03:13:44;;;;;;;8.57;4.60;;;19.40;78.40;;;;;;4968553;28;20709;-62
2022/09/06 03:16:10;;;;;;;6.40;4.32;;;19.40;78.40;;;;;;4965485;28;20076;-62
2022/09/06 03:18:36;;;;;;;11.90;5.03;;;19.40;78.70;;;;;;4984782;28;20089;-62
2022/09/06 03:21:01;;;;;;;7.88;4.45;;;19.30;78.90;;;;;;4956140;28;20042;-62
2022/09/06 03:23:28;;;;;;;5.38;4.20;;;19.30;79.00;;;;;;4931682;28;20046;-63
2022/09/06 03:25:55;;;;;;;5.13;4.53;;;19.30;79.20;;;;;;4970310;28;20144;-62
2022/09/06 03:28:21;;;;;;;9.00;5.00;;;19.20;79.20;;;;;;4965841;28;20050;-62
2022/09/06 03:30:49;;;;;;;6.40;4.47;;;19.20;79.50;;;;;;4964889;28;20054;-62
2022/09/06 03:33:15;;;;;;;8.05;5.15;;;19.20;79.60;;;;;;4967951;28;20042;-63
2022/09/06 03:35:50;;;;;;;6.18;4.70;;;19.10;79.80;;;;;;4966830;28;20673;-62
2022/09/06 03:38:16;;;;;;;7.15;4.78;;;19.20;79.90;;;;;;4969914;28;20113;-63
2022/09/06 03:40:47;;;;;;;8.48;4.57;;;19.10;80.00;;;;;;4972351;28;20058;-62
2022/09/06 03:43:14;;;;;;;5.28;4.68;;;19.10;80.10;;;;;;4957455;28;20046;-62
2022/09/06 03:45:43;;;;;;;6.20;4.72;;;19.10;80.20;;;;;;4973555;28;20050;-62
2022/09/06 03:48:09;;;;;;;8.15;4.93;;;19.00;80.30;;;;;;4977636;28;20053;-63
2022/09/06 03:50:35;;;;;;;5.15;4.55;;;19.00;80.30;;;;;;4943778;28;20584;-63
2022/09/06 03:53:01;;;;;;;9.18;5.47;;;19.00;80.40;;;;;;4976458;28;20058;-62
2022/09/06 03:55:26;;;;;;;6.28;5.30;;;19.00;80.60;;;;;;4973614;28;20133;-62
2022/09/06 03:57:52;;;;;;;6.68;4.78;;;19.00;80.70;;;;;;4975246;28;20357;-62
2022/09/06 04:00:18;;;;;;;6.10;5.18;;;19.00;80.80;;;;;;4976631;28;20073;-62
2022/09/06 04:02:44;;;;;;;6.57;5.25;;;18.90;80.90;;;;;;4975178;28;20688;-62
2022/09/06 04:05:11;;;;;;;8.43;5.28;;;18.90;81.00;;;;;;4990907;28;20125;-63
2022/09/06 04:07:37;;;;;;;8.40;5.50;;;18.90;81.10;;;;;;4936894;28;20509;-62
2022/09/06 04:10:03;;;;;;;8.32;5.22;;;18.90;81.20;;;;;;4974418;28;20089;-62
2022/09/06 04:12:28;;;;;;;6.45;5.65;;;18.90;81.40;;;;;;4975682;28;20568;-62
2022/09/06 04:14:54;;;;;;;6.82;5.43;;;18.90;81.50;;;;;;4960920;28;20093;-62
2022/09/06 04:17:20;;;;;;;6.00;5.40;;;18.80;81.40;;;;;;4958892;28;20058;-62
2022/09/06 04:19:46;;;;;;;7.47;5.32;;;18.90;81.60;;;;;;4953204;28;20050;-62
2022/09/06 04:22:12;;;;;;;9.40;5.43;;;18.80;81.60;;;;;;4956771;28;20046;-62
2022/09/06 04:24:37;;;;;;;8.15;5.75;;;18.80;81.70;;;;;;4966267;28;20050;-62
2022/09/06 04:27:03;;;;;;;7.63;5.85;;;18.80;81.80;;;;;;4974529;28;20050;-62
2022/09/06 04:29:29;;;;;;;6.57;5.80;;;18.80;81.80;;;;;;4971700;28;20112;-63
2022/09/06 04:31:55;;;;;;;8.05;6.00;;;18.90;81.90;;;;;;4973301;28;20061;-62
2022/09/06 04:34:21;;;;;;;14.65;5.97;;;18.80;81.90;;;;;;4967693;28;20046;-62
2022/09/06 04:36:47;;;;;;;9.10;5.80;;;18.80;81.90;;;;;;4989574;28;20054;-62
2022/09/06 04:39:12;;;;;;;6.97;5.50;;;18.90;82.10;;;;;;4958132;28;20046;-62
2022/09/06 04:41:38;;;;;;;8.68;5.75;;;18.80;82.00;;;;;;4955592;28;20057;-62
2022/09/06 04:44:04;;;;;;;7.60;5.88;;;18.80;82.00;;;;;;4962826;28;20188;-62
2022/09/06 04:46:30;;;;;;;7.68;6.00;;;18.80;82.10;;;;;;4970073;28;20050;-62
2022/09/06 04:48:57;;;;;;;9.00;6.20;;;18.90;82.30;;;;;;4974543;28;20081;-62
2022/09/06 04:51:23;;;;;;;6.38;5.68;;;18.90;82.60;;;;;;4972947;28;20050;-62
2022/09/06 04:53:50;;;;;;;7.60;6.20;;;18.90;82.30;;;;;;4972472;28;20512;-62
2022/09/06 04:56:21;;;;;;;7.25;5.75;;;18.90;82.50;;;;;;4969420;28;20042;-63
2022/09/06 04:58:48;;;;;;;7.20;5.80;;;18.90;82.70;;;;;;4973377;28;20056;-63
2022/09/06 05:01:15;;;;;;;7.07;6.38;;;18.90;82.90;;;;;;4964967;28;20046;-63
2022/09/06 05:03:41;;;;;;;7.55;6.38;;;18.90;83.30;;;;;;4974018;28;20116;-63
2022/09/06 05:06:10;;;;;;;9.40;6.57;;;18.90;83.20;;;;;;4971896;28;20073;-63
2022/09/06 05:08:40;;;;;;;9.93;6.50;;;18.90;83.40;;;;;;4959630;28;20046;-63
2022/09/06 05:11:07;;;;;;;6.95;6.25;;;18.90;84.40;;;;;;4970865;28;20551;-63
2022/09/06 05:13:33;;;;;;;8.52;6.82;;;18.90;84.10;;;;;;4972544;28;20489;-63
2022/09/06 05:16:05;;;;;;;9.13;6.40;;;18.80;84.70;;;;;;4963848;28;20078;-62
2022/09/06 05:18:31;;;;;;;10.10;7.47;;;18.80;85.10;;;;;;4967910;28;20069;-63
2022/09/06 05:20:59;;;;;;;9.38;6.47;;;18.80;85.70;;;;;;4971645;28;20078;-63
2022/09/06 05:23:25;;;;;;;7.65;6.75;;;18.80;85.80;;;;;;4985380;28;20073;-63
2022/09/06 05:25:52;;;;;;;8.15;6.80;;;18.80;85.90;;;;;;4966976;28;20046;-62
2022/09/06 05:28:18;;;;;;;11.27;6.55;;;18.80;86.30;;;;;;4967022;28;20050;-63
2022/09/06 05:30:44;;;;;;;8.95;7.57;;;18.70;86.80;;;;;;4962049;28;20054;-63
2022/09/06 05:33:12;;;;;;;13.35;7.47;;;18.80;87.40;;;;;;4978294;28;20048;-62
2022/09/06 05:35:38;;;;;;;8.35;7.50;;;18.70;87.80;;;;;;4963204;28;20053;-63
2022/09/06 05:38:04;;;;;;;11.25;7.72;;;18.70;88.10;;;;;;4966771;28;20492;-63
2022/09/06 05:40:30;;;;;;;9.20;7.55;;;18.70;88.60;;;;;;4965382;28;20169;-63
2022/09/06 05:42:56;;;;;;;8.88;7.90;;;18.70;88.90;;;;;;4962237;28;20054;-63
2022/09/06 05:45:22;;;;;;;12.57;8.40;;;18.70;89.10;;;;;;4956904;28;20546;-63
2022/09/06 05:47:48;;;;;;;12.95;7.88;;;18.70;89.40;;;;;;4969943;28;20043;-62
2022/09/06 05:50:14;;;;;;;8.40;7.55;;;18.70;89.80;;;;;;4967870;28;20054;-62
2022/09/06 05:52:40;;;;;;;9.75;7.80;;;18.70;89.90;;;;;;4943281;28;20054;-60
2022/09/06 05:55:06;;;;;;;10.20;8.45;;;18.70;90.00;;;;;;4963658;28;20148;-59
2022/09/06 05:57:32;;;;;;;9.82;7.47;;;18.70;90.10;;;;;;4944997;28;20497;-61
2022/09/06 05:59:58;;;;;;;9.02;7.97;;;18.70;90.20;;;;;;4970509;28;20060;-61
2022/09/06 06:02:24;;;;;;;9.48;7.60;;;18.70;90.30;;;;;;4972573;28;20054;-61
2022/09/06 06:04:53;;;;;;;11.40;7.72;;;18.70;90.40;;;;;;4970811;28;20046;-59
2022/09/06 06:07:19;;;;;;;12.55;7.93;;;18.70;90.60;;;;;;4970839;28;20800;-61
2022/09/06 06:09:45;;;;;;;9.00;8.10;;;18.70;90.60;;;;;;4961997;28;20054;-61
2022/09/06 06:12:11;;;;;;;11.82;8.27;;;18.80;90.70;;;;;;4948702;28;20068;-57
2022/09/06 06:14:37;;;;;;;10.70;8.63;;;18.80;90.90;;;;;;4971011;28;20497;-56
2022/09/06 06:17:03;;;;;;;11.48;8.30;;;18.80;91.00;;;;;;4971796;28;20050;-56
2022/09/06 06:19:28;;;;;;;10.00;8.20;;;18.80;91.20;;;;;;4995172;28;20046;-57
2022/09/06 06:21:55;;;;;;;17.00;8.55;;;18.80;91.20;;;;;;4996488;28;20487;-55
2022/09/06 06:24:21;;;;;;;11.50;8.13;;;18.80;91.20;;;;;;4994287;28;20200;-57
2022/09/06 06:26:47;;;;;;;11.68;9.27;;;18.80;91.20;;;;;;4993986;28;20613;-57
2022/09/06 06:29:13;;;;;;;14.68;8.65;;;18.90;91.30;;;;;;4993499;28;20416;-56
2022/09/06 06:31:39;;;;;;;11.63;8.93;;;18.90;91.20;;;;;;4994468;28;20057;-56
2022/09/06 06:34:05;;;;;;;10.75;9.18;;;18.90;91.20;;;;;;4996012;28;21331;-57
2022/09/06 06:36:33;;;;;;;11.55;9.07;;;18.90;91.20;;;;;;4996726;28;20408;-56
2022/09/06 06:39:01;;;;;;;10.75;9.07;;;19.00;91.20;;;;;;4999418;28;20042;-56
2022/09/06 06:41:29;;;;;;;15.15;9.13;;;19.00;91.20;;;;;;5003558;28;20049;-57
2022/09/06 06:43:58;;;;;;;11.68;9.77;;;19.00;91.20;;;;;;4995274;28;20052;-56
2022/09/06 06:46:30;;;;;;;14.95;9.82;;;19.00;91.20;;;;;;4994297;28;20046;-57
2022/09/06 06:48:56;;;;;;;12.43;10.10;;;19.00;91.30;;;;;;4995226;28;20446;-57
2022/09/06 06:51:24;;;;;;;18.17;9.93;;;19.10;91.30;;;;;;4994842;28;20037;-57
2022/09/06 06:53:50;;;;;;;12.30;9.80;;;19.10;91.30;;;;;;4994364;28;20490;-56
2022/09/06 06:56:16;;;;;;;12.80;10.02;;;19.10;91.40;;;;;;4997054;28;20103;-57
2022/09/06 06:58:43;;;;;;;11.50;10.13;;;19.10;91.40;;;;;;5007310;28;20484;-55
2022/09/06 07:01:09;;;;;;;19.55;10.50;;;19.20;91.50;;;;;;5008226;28;20102;-56
2022/09/06 07:03:35;;;;;;;12.55;10.52;;;19.20;91.30;;;;;;5005473;28;20045;-57
2022/09/06 07:06:05;;;;;;;23.92;12.25;;;19.30;91.30;;;;;;5003256;28;20068;-57
2022/09/06 07:08:31;;;;;;;15.85;11.25;;;19.30;91.30;;;;;;5004922;28;20054;-57
2022/09/06 07:10:57;;;;;;;17.00;11.32;;;19.30;91.30;;;;;;4997492;28;20750;-54
2022/09/06 07:13:23;;;;;;;15.73;10.10;;;19.40;91.20;;;;;;4995337;28;20073;-56
2022/09/06 07:15:49;;;;;;;13.63;10.20;;;19.40;91.20;;;;;;4993753;28;20109;-57
2022/09/06 07:18:16;;;;;;;14.65;10.80;;;19.40;91.10;;;;;;4997219;28;20054;-57
2022/09/06 07:20:41;;;;;;;11.27;10.10;;;19.50;91.10;;;;;;4998437;28;20073;-56
2022/09/06 07:23:07;;;;;;;17.77;9.60;;;19.50;91.10;;;;;;4998700;28;20128;-56
2022/09/06 07:25:33;;;;;;;21.10;10.75;;;19.50;91.10;;;;;;4981909;28;20487;-57
2022/09/06 07:28:07;;;;;;;17.75;10.35;;;19.60;91.20;;;;;;4996301;28;20062;-57
2022/09/06 07:30:38;;;;;;;18.33;10.35;;;19.70;91.20;;;;;;4995779;28;20049;-57
2022/09/06 07:33:04;;;;;;;15.63;10.57;;;19.70;91.20;;;;;;4998042;28;20088;-55
2022/09/06 07:35:30;;;;;;;21.70;11.55;;;19.80;91.00;;;;;;4999362;28;20168;-57
2022/09/06 07:37:59;;;;;;;14.18;11.43;;;19.90;90.90;;;;;;5001561;28;20851;-57
2022/09/06 07:40:26;;;;;;;13.13;11.18;;;19.80;90.90;;;;;;4998470;28;20046;-57
2022/09/06 07:42:56;;;;;;;14.18;11.18;;;19.90;90.90;;;;;;4996185;28;20266;-56
2022/09/06 07:45:22;;;;;;;14.32;10.80;;;19.90;90.80;;;;;;4996020;28;20058;-57
2022/09/06 07:48:00;;;;;;;15.75;11.27;;;19.90;90.90;;;;;;4998545;28;20050;-56
2022/09/06 07:50:27;;;;;;;13.10;10.70;;;20.00;90.90;;;;;;4996984;28;20046;-56
2022/09/06 07:52:53;;;;;;;16.20;11.10;;;20.00;90.80;;;;;;4998640;28;20041;-57
2022/09/06 07:55:19;;;;;;;14.95;11.75;;;20.00;90.70;;;;;;4996056;28;20429;-57
2022/09/06 07:57:44;;;;;;;12.65;10.85;;;20.00;90.70;;;;;;4999115;28;20088;-56
2022/09/06 08:00:11;;;;;;;13.13;10.50;;;20.10;90.80;;;;;;4997111;28;20148;-57
2022/09/06 08:02:39;;;;;;;12.38;10.80;;;20.20;90.70;;;;;;4996993;28;20064;-55
2022/09/06 08:05:06;;;;;;;12.65;10.90;;;20.40;90.60;;;;;;4996613;28;20103;-56
2022/09/06 08:07:31;;;;;;;16.50;10.93;;;20.50;90.50;;;;;;4995395;28;20136;-56
2022/09/06 08:09:57;;;;;;;14.32;10.68;;;20.70;90.20;;;;;;4998624;28;20132;-57
2022/09/06 08:12:26;;;;;;;13.70;10.75;;;20.80;90.10;;;;;;4996937;28;20053;-57
2022/09/06 08:14:52;;;;;;;14.85;10.32;;;20.90;89.70;;;;;;4997885;28;20056;-56
2022/09/06 08:17:18;;;;;;;12.55;10.70;;;21.10;89.30;;;;;;4997059;28;20053;-57
2022/09/06 08:19:44;;;;;;;12.35;9.85;;;21.20;88.80;;;;;;4997622;28;20216;-57
2022/09/06 08:22:10;;;;;;;11.40;9.77;;;21.30;88.60;;;;;;4998253;28;20549;-57
2022/09/06 08:24:37;;;;;;;16.35;10.20;;;21.40;88.50;;;;;;4997724;28;20046;-57
2022/09/06 08:27:06;;;;;;;12.40;10.25;;;21.50;88.30;;;;;;4996082;28;20078;-58
2022/09/06 08:29:33;;;;;;;14.55;10.18;;;21.70;88.40;;;;;;4995165;28;20125;-56
2022/09/06 08:31:58;;;;;;;14.60;10.50;;;21.80;88.10;;;;;;4998753;28;20045;-57
2022/09/06 08:34:24;;;;;;;12.48;10.13;;;22.00;88.00;;;;;;4995865;28;20041;-56
2022/09/06 08:36:50;;;;;;;11.48;10.35;;;22.10;87.60;;;;;;4982160;28;20049;-56
2022/09/06 08:39:16;;;;;;;15.85;10.07;;;22.30;87.20;;;;;;5003405;28;20046;-56
2022/09/06 08:41:57;;;;;;;11.40;10.00;;;22.40;86.70;;;;;;5000552;28;20044;-55
2022/09/06 08:44:33;;;;;;;15.00;10.55;;;22.60;86.00;;;;;;4996773;28;20128;-57
2022/09/06 08:47:08;;;;;;;11.73;10.07;;;22.60;85.20;;;;;;4995641;28;20176;-56
2022/09/06 08:49:44;;;;;;;17.17;10.13;;;22.70;84.70;;;;;;4995911;28;20152;-56
2022/09/06 08:52:40;;;;;;;11.57;9.93;;;22.80;84.30;;;;;;4993117;28;20076;-56
2022/09/06 08:55:18;;;;;;;11.75;9.48;;;23.00;84.40;;;;;;4997053;28;20112;-57
2022/09/06 08:57:55;;;;;;;11.88;9.50;;;23.10;83.80;;;;;;4997783;28;20365;-56
2022/09/06 09:00:22;;;;;;;11.75;9.57;;;23.20;83.20;;;;;;4995573;28;20503;-57
2022/09/06 09:03:25;;;;;;;13.75;9.35;;;23.30;83.00;;;;;;4999690;28;20050;-56
2022/09/06 09:05:52;;;;;;;10.57;9.38;;;23.50;83.50;;;;;;4872581;29;20056;-56
2022/09/06 09:08:38;;;;;;;12.65;9.10;;;23.70;82.40;;;;;;4975533;28;20137;-56
2022/09/06 09:11:13;;;;;;;13.63;9.55;;;23.90;82.60;;;;;;4978557;28;20044;-57
2022/09/06 09:13:45;;;;;;;16.75;9.40;;;24.10;81.80;;;;;;4996994;28;20045;-56
2022/09/06 09:16:12;;;;;;;16.42;9.15;;;24.20;81.00;;;;;;5002792;28;20484;-56
2022/09/06 09:18:42;;;;;;;17.38;9.05;;;24.20;80.70;;;;;;4996346;28;20045;-57
2022/09/06 09:21:09;;;;;;;11.45;8.95;;;24.30;81.20;;;;;;4995072;28;20053;-56
2022/09/06 09:23:35;;;;;;;10.63;8.70;;;24.50;80.70;;;;;;4994353;28;20405;-57
2022/09/06 09:26:13;;;;;;;12.13;8.75;;;24.70;80.40;;;;;;4999342;28;20050;-57
2022/09/06 09:29:05;;;;;;;14.63;8.10;;;24.90;79.40;;;;;;4996097;28;20105;-56
2022/09/06 09:31:38;;;;;;;9.35;8.45;;;25.10;79.10;;;;;;4994836;28;20054;-56
2022/09/06 09:34:04;;;;;;;16.58;8.77;;;25.20;78.40;;;;;;4998004;28;20056;-56
2022/09/06 09:36:31;;;;;;;14.02;8.90;;;25.30;77.80;;;;;;4994520;28;20092;-57
2022/09/06 09:38:58;;;;;;;13.73;8.57;;;25.40;77.30;;;;;;4995839;28;20993;-55
2022/09/06 09:41:35;;;;;;;10.75;8.50;;;25.60;76.80;;;;;;4978518;28;20042;-57
2022/09/06 09:44:15;;;;;;;12.20;7.95;;;25.70;76.40;;;;;;4974792;28;20080;-57
2022/09/06 09:46:41;;;;;;;8.80;7.70;;;25.70;75.50;;;;;;4998273;28;20045;-57
2022/09/06 09:49:28;;;;;;;13.35;7.93;;;25.70;75.50;;;;;;4995740;28;20599;-57
2022/09/06 09:52:12;;;;;;;11.73;7.75;;;25.50;75.00;;;;;;4994738;28;20494;-57
2022/09/06 09:54:43;;;;;;;10.55;7.72;;;25.40;75.30;;;;;;5006616;28;20093;-57
2022/09/06 09:57:13;;;;;;;10.82;8.10;;;25.40;76.30;;;;;;4994668;28;20056;-57
2022/09/06 09:59:45;;;;;;;15.82;7.80;;;25.60;76.30;;;;;;4992616;28;20049;-56
2022/09/06 10:02:38;;;;;;;;;;;25.80;75.30;;;;;;4977293;28;20046;-57
2022/09/06 10:05:03;;;;;;;14.60;8.98;;;26.00;76.30;;;;;;4974122;28;19957;-57
2022/09/06 10:07:40;;;;;;;12.77;9.23;;;26.10;74.90;;;;;;4995014;28;20180;-58
2022/09/06 10:10:19;;;;;;;11.75;8.85;;;26.20;74.50;;;;;;4997182;28;20046;-57
2022/09/06 10:12:45;;;;;;;11.60;9.60;;;26.30;74.00;;;;;;4995147;28;20046;-56
2022/09/06 10:15:30;;;;;;;10.45;9.32;;;26.30;73.50;;;;;;4995231;28;20042;-56
2022/09/06 10:17:56;;;;;;;17.08;9.10;;;26.20;73.20;;;;;;4994688;28;20499;-55
2022/09/06 10:20:47;;;;;;;10.80;8.20;;;26.30;73.50;;;;;;4997842;28;20041;-57
2022/09/06 10:23:20;;;;;;;11.45;8.43;;;26.30;74.40;;;;;;4986822;28;20053;-57
2022/09/06 10:25:56;;;;;;;11.43;8.50;;;26.50;74.10;;;;;;4994557;28;20046;-57
2022/09/06 10:28:28;;;;;;;12.45;8.10;;;26.50;73.40;;;;;;4996740;28;20125;-56
2022/09/06 10:31:00;;;;;;;15.15;8.77;;;26.70;73.00;;;;;;4995975;28;20057;-56
2022/09/06 10:33:55;;;;;;;11.35;8.50;;;26.80;72.80;;;;;;4995242;28;20045;-57
2022/09/06 10:36:49;;;;;;;11.45;8.50;;;26.80;72.50;;;;;;4993717;28;20104;-57
2022/09/06 10:39:52;;;;;;;10.73;8.13;;;26.90;71.80;;;;;;4994369;28;20089;-57
2022/09/06 10:42:43;;;;;;;11.65;8.70;;;26.90;72.00;;;;;;4995323;28;20569;-57
2022/09/06 10:45:42;;;;;;;8.10;7.30;;;26.90;70.60;;;;;;4994826;28;20145;-58
2022/09/06 10:48:24;;;;;;;18.60;8.18;;;26.70;71.90;;;;;;4994964;28;20054;-56
2022/09/06 10:51:20;;;;;;;14.52;8.10;;;26.80;71.60;;;;;;4993828;28;20042;-57
2022/09/06 10:53:51;;;;;;;8.98;8.07;;;26.90;71.60;;;;;;4996464;28;20046;-58
2022/09/06 10:56:44;;;;;;;10.70;7.72;;;27.00;71.80;;;;;;4996952;28;20054;-57
2022/09/06 10:59:22;;;;;;;12.02;7.70;;;27.20;71.40;;;;;;4998479;28;20648;-58
2022/09/06 11:02:11;;;;;;;12.65;7.88;;;27.30;70.60;;;;;;4995955;28;20050;-57
2022/09/06 11:04:39;;;;;;;10.70;8.52;;;27.40;70.70;;;;;;4976393;28;20050;-55
2022/09/06 11:07:27;;;;;;;12.32;8.32;;;27.60;70.20;;;;;;4997493;28;20468;-57
2022/09/06 11:09:58;;;;;;;10.38;8.45;;;27.70;70.20;;;;;;4964652;28;20057;-56
2022/09/06 11:12:39;;;;;;;11.13;8.10;;;27.70;69.60;;;;;;4972083;28;20053;-56
2022/09/06 11:15:08;;;;;;;13.77;8.73;;;27.80;69.90;;;;;;4979184;28;20058;-56
2022/09/06 11:17:44;;;;;;;12.60;7.75;;;28.00;68.70;;;;;;4997386;28;20058;-56
2022/09/06 11:20:23;;;;;;;11.23;8.20;;;28.10;69.10;;;;;;4997062;28;20046;-55
2022/09/06 11:23:31;;;;;;;8.60;7.70;;;28.30;68.10;;;;;;4999335;28;20093;-56
2022/09/06 11:26:03;;;;;;;12.10;7.50;;;28.40;68.30;;;;;;4999948;28;20165;-56
2022/09/06 11:28:43;;;;;;;10.25;7.55;;;28.60;67.40;;;;;;4999506;28;20054;-56
2022/09/06 11:31:18;;;;;;;13.18;8.25;;;28.80;67.20;;;;;;4998670;28;20053;-55
2022/09/06 11:33:44;;;;;;;10.60;7.72;;;28.90;66.50;;;;;;4997924;28;20097;-56
2022/09/06 11:36:36;;;;;;;9.50;7.10;;;29.00;66.30;;;;;;4997076;28;20522;-56
2022/09/06 11:39:06;;;;;;;11.27;7.78;;;29.00;66.80;;;;;;4996953;28;20041;-56
2022/09/06 11:41:36;;;;;;;10.07;7.13;;;29.10;65.30;;;;;;4995945;28;20049;-56
2022/09/06 11:44:04;;;;;;;8.95;6.45;;;29.00;65.50;;;;;;4997799;28;20916;-55
2022/09/06 11:46:32;;;;;;;7.68;6.97;;;29.00;65.60;;;;;;4996864;28;20053;-55
2022/09/06 11:49:19;;;;;;;12.15;6.28;;;28.70;64.50;;;;;;5001392;28;20045;-55
2022/09/06 11:51:45;;;;;;;7.30;5.78;;;28.40;64.60;;;;;;4998867;28;20539;-56
2022/09/06 11:54:17;;;;;;;10.05;6.00;;;28.10;64.70;;;;;;4974528;28;20407;-56
2022/09/06 11:56:46;;;;;;;11.10;6.13;;;27.90;65.40;;;;;;4998971;28;20534;-56
2022/09/06 11:59:17;;;;;;;10.18;6.60;;;27.80;65.60;;;;;;4988372;28;20092;-56
2022/09/06 12:02:04;;;;;;;7.40;5.50;;;27.80;65.50;;;;;;4995664;28;20137;-55
2022/09/06 12:04:57;;;;;;;6.47;5.30;;;27.90;65.90;;;;;;4994717;28;20057;-56
2022/09/06 12:07:24;;;;;;;7.22;4.68;;;28.10;65.90;;;;;;4997068;28;20501;-54
2022/09/06 12:09:50;;;;;;;9.18;4.85;;;28.40;66.50;;;;;;4995830;28;20048;-55
2022/09/06 12:12:39;;;;;;;8.38;5.50;;;28.70;64.90;;;;;;4992558;28;20527;-56
2022/09/06 12:15:31;;;;;;;12.50;4.80;;;29.00;64.00;;;;;;5000508;28;20045;-54
2022/09/06 12:17:58;;;;;;;6.75;4.90;;;29.20;63.50;;;;;;4992532;28;20500;-55
2022/09/06 12:20:56;;;;;;;7.03;4.55;;;29.40;62.90;;;;;;4993436;28;20073;-56
2022/09/06 12:23:34;;;;;;;8.02;4.80;;;29.60;62.60;;;;;;4973520;28;20200;-55
2022/09/06 12:26:02;;;;;;;11.88;4.85;;;29.70;62.30;;;;;;4997266;28;20045;-56
2022/09/06 12:28:51;;;;;;;7.95;5.05;;;29.80;61.50;;;;;;4994887;28;20052;-54
2022/09/06 12:31:51;;;;;;;11.20;4.88;;;29.70;61.40;;;;;;4997996;28;20049;-56
2022/09/06 12:34:37;;;;;;;7.60;4.88;;;29.70;61.60;;;;;;4995680;28;20052;-54
2022/09/06 12:37:09;;;;;;;6.80;4.72;;;29.80;61.30;;;;;;4980998;28;20049;-56
2022/09/06 12:39:35;;;;;;;12.80;4.63;;;30.00;60.80;;;;;;4996457;28;20041;-56
2022/09/06 12:42:04;;;;;;;9.57;5.05;;;30.20;60.90;;;;;;4994730;28;20484;-55
2022/09/06 12:44:37;;;;;;;5.72;4.43;;;30.40;59.90;;;;;;4979222;28;20555;-57
2022/09/06 12:47:10;;;;;;;7.63;4.65;;;30.50;60.10;;;;;;4995838;28;20077;-56
2022/09/06 12:49:36;;;;;;;11.45;5.25;;;30.70;60.50;;;;;;4987052;28;20080;-57
2022/09/06 12:52:18;;;;;;;7.45;4.05;;;30.90;59.40;;;;;;5000024;28;20467;-56
2022/09/06 12:54:47;;;;;;;9.25;5.10;;;31.00;59.30;;;;;;4971509;28;20046;-56
2022/09/06 12:57:20;;;;;;;14.20;5.00;;;31.10;58.40;;;;;;4960929;28;20060;-57
2022/09/06 12:59:55;;;;;;;9.70;4.50;;;31.10;58.20;;;;;;5002893;28;20830;-57
2022/09/06 13:02:47;;;;;;;4.32;3.80;;;31.10;57.90;;;;;;5001873;28;20073;-56